Time;durP1;ratioP1;P1;durP2;ratioP2;P2;SDS_P1;SDS_P2;PMS_P1;PMS_P2;Temp;Humidity;BMP_temperature;BMP_pressure;BME280_temperature;BME280_humidity;BME280_pressure;Samples;Min_cycle;Max_cycle;Signal;HPM_P1;HPM_P2
2021/06/01 04:02:04;;;;;;;5.67;5.27;;;11.70;99.90;;;;;;5223089;23;20560;-66
2021/06/01 04:04:30;;;;;;;5.77;5.30;;;11.60;99.90;;;;;;4975397;28;20454;-65
2021/06/01 04:06:56;;;;;;;5.70;5.23;;;11.60;99.90;;;;;;4975006;28;20457;-65
2021/06/01 04:09:23;;;;;;;5.43;5.03;;;11.60;99.90;;;;;;4975869;28;20454;-65
2021/06/01 04:11:49;;;;;;;10.37;5.17;;;11.60;99.90;;;;;;4975814;28;20466;-65
2021/06/01 04:14:18;;;;;;;7.17;5.43;;;11.70;99.90;;;;;;4976059;28;20821;-63
2021/06/01 04:16:44;;;;;;;8.53;5.73;;;11.60;99.90;;;;;;4975761;28;20517;-62
2021/06/01 04:19:12;;;;;;;6.03;5.60;;;11.60;99.90;;;;;;4975836;28;20454;-64
2021/06/01 04:21:39;;;;;;;5.93;5.43;;;11.60;99.90;;;;;;4975421;28;20490;-62
2021/06/01 04:24:07;;;;;;;5.70;5.30;;;11.70;99.90;;;;;;4979021;28;20476;-62
2021/06/01 04:26:33;;;;;;;6.20;5.57;;;11.70;99.90;;;;;;4979709;28;20516;-62
2021/06/01 04:29:00;;;;;;;5.37;4.97;;;11.80;99.90;;;;;;4982610;28;20458;-63
2021/06/01 04:31:26;;;;;;;5.90;5.40;;;11.80;99.90;;;;;;4980312;28;20470;-62
2021/06/01 04:33:52;;;;;;;5.37;4.97;;;11.90;99.90;;;;;;4979914;28;20945;-62
2021/06/01 04:36:19;;;;;;;5.40;4.93;;;11.90;99.90;;;;;;4980414;28;20454;-62
2021/06/01 04:38:46;;;;;;;5.03;4.60;;;11.90;99.90;;;;;;4979511;28;20458;-62
2021/06/01 04:41:12;;;;;;;5.17;4.80;;;11.90;99.90;;;;;;4979375;28;20478;-61
2021/06/01 04:43:38;;;;;;;5.80;5.40;;;11.90;99.90;;;;;;4979569;28;20461;-61
2021/06/01 04:46:04;;;;;;;5.50;5.00;;;11.90;99.90;;;;;;4980788;28;20945;-62
2021/06/01 04:48:30;;;;;;;5.77;5.27;;;11.90;99.90;;;;;;4980672;28;20469;-62
2021/06/01 04:50:57;;;;;;;5.37;4.67;;;12.00;99.90;;;;;;4980650;28;20571;-62
2021/06/01 04:53:24;;;;;;;4.80;4.50;;;12.00;99.90;;;;;;4979716;28;20454;-63
2021/06/01 04:55:51;;;;;;;5.47;5.03;;;12.00;99.90;;;;;;4997787;28;20521;-62
2021/06/01 04:58:17;;;;;;;5.93;4.90;;;12.00;99.90;;;;;;4998995;28;20469;-63
2021/06/01 05:00:43;;;;;;;5.63;5.23;;;12.00;99.90;;;;;;4998676;28;20486;-62
2021/06/01 05:03:09;;;;;;;5.53;5.07;;;12.00;99.90;;;;;;5000348;28;20458;-63
2021/06/01 05:05:36;;;;;;;5.60;5.13;;;12.10;99.90;;;;;;4995037;28;20443;-62
2021/06/01 05:08:02;;;;;;;5.80;5.40;;;12.20;99.90;;;;;;4999919;28;20510;-62
2021/06/01 05:10:30;;;;;;;5.07;4.73;;;12.20;99.90;;;;;;4991285;28;20456;-63
2021/06/01 05:12:56;;;;;;;5.73;5.20;;;12.20;99.90;;;;;;4989413;28;20456;-61
2021/06/01 05:15:22;;;;;;;5.60;5.20;;;12.30;99.90;;;;;;4984702;28;20964;-63
2021/06/01 05:17:48;;;;;;;5.50;5.10;;;12.30;99.90;;;;;;4978543;28;20455;-61
2021/06/01 05:20:15;;;;;;;5.33;4.83;;;12.40;99.90;;;;;;4978312;28;20459;-62
2021/06/01 05:22:42;;;;;;;5.83;5.43;;;12.40;99.90;;;;;;4978283;28;20489;-62
2021/06/01 05:25:10;;;;;;;5.13;4.83;;;12.50;99.90;;;;;;4978453;28;20458;-61
2021/06/01 05:27:38;;;;;;;5.40;5.10;;;12.50;99.90;;;;;;4979485;28;20482;-62
2021/06/01 05:30:06;;;;;;;5.83;5.27;;;12.60;99.90;;;;;;4978287;28;20455;-62
2021/06/01 05:35:24;;;;;;;5.73;5.33;;;12.80;99.90;;;;;;4967522;28;20790;-61
2021/06/01 05:37:51;;;;;;;6.10;5.00;;;13.00;99.90;;;;;;4978126;28;20447;-62
2021/06/01 05:40:18;;;;;;;5.90;5.30;;;13.00;99.90;;;;;;4978300;28;20550;-61
2021/06/01 05:42:45;;;;;;;5.73;5.33;;;13.20;99.90;;;;;;4978406;28;20563;-61
2021/06/01 05:45:12;;;;;;;6.17;5.40;;;13.40;99.90;;;;;;4977955;28;20463;-62
2021/06/01 05:47:39;;;;;;;6.27;5.03;;;13.70;99.90;;;;;;4978229;28;20462;-62
2021/06/01 05:50:06;;;;;;;5.43;4.90;;;13.90;99.90;;;;;;4978560;28;20458;-62
2021/06/01 05:52:34;;;;;;;5.73;5.23;;;13.90;99.90;;;;;;4978744;28;20471;-62
2021/06/01 05:55:02;;;;;;;5.20;4.70;;;14.10;99.90;;;;;;4978536;28;20513;-63
2021/06/01 05:57:28;;;;;;;5.00;4.70;;;14.20;99.90;;;;;;4977956;28;20454;-63
2021/06/01 05:59:56;;;;;;;5.53;4.97;;;14.40;99.90;;;;;;4979692;28;20462;-63
2021/06/01 06:02:22;;;;;;;5.40;4.90;;;14.60;99.90;;;;;;4978264;28;20485;-63
2021/06/01 06:04:49;;;;;;;5.97;5.47;;;14.80;99.90;;;;;;4978193;28;20486;-63
2021/06/01 06:07:15;;;;;;;6.37;5.00;;;15.10;99.90;;;;;;4977636;28;20454;-63
2021/06/01 06:09:41;;;;;;;6.17;5.57;;;15.30;99.90;;;;;;4977266;28;20968;-63
2021/06/01 06:12:09;;;;;;;5.10;4.80;;;15.50;99.90;;;;;;4977128;28;20471;-63
2021/06/01 06:14:35;;;;;;;9.90;4.90;;;15.60;99.90;;;;;;4976979;28;20949;-62
2021/06/01 06:17:07;;;;;;;5.83;5.33;;;15.80;99.90;;;;;;4977429;28;20462;-63
2021/06/01 06:19:36;;;;;;;6.03;5.40;;;16.00;99.90;;;;;;4978017;28;20809;-63
2021/06/01 06:22:03;;;;;;;4.90;4.60;;;16.20;99.90;;;;;;4977862;28;20486;-63
2021/06/01 06:24:30;;;;;;;4.90;4.40;;;16.50;99.90;;;;;;4977309;28;20451;-63
2021/06/01 06:26:57;;;;;;;8.80;5.40;;;16.70;99.90;;;;;;4977171;28;20465;-63
2021/06/01 06:29:23;;;;;;;5.33;4.83;;;16.90;99.90;;;;;;4977265;28;20534;-63
2021/06/01 06:31:49;;;;;;;4.80;4.40;;;17.10;99.90;;;;;;4976852;28;20478;-63
2021/06/01 06:34:17;;;;;;;6.97;4.73;;;17.20;99.90;;;;;;4976758;28;20968;-63
2021/06/01 06:36:43;;;;;;;5.97;4.80;;;17.30;99.90;;;;;;4977134;28;20455;-62
2021/06/01 06:39:10;;;;;;;6.30;5.70;;;17.50;99.90;;;;;;4976647;28;20462;-63
2021/06/01 06:41:36;;;;;;;5.60;5.20;;;17.50;99.90;;;;;;4976856;28;20973;-61
2021/06/01 06:44:04;;;;;;;5.20;4.83;;;17.70;99.90;;;;;;4976777;28;20438;-61
2021/06/01 06:46:35;;;;;;;5.03;4.73;;;17.90;99.90;;;;;;4976178;28;20553;-61
2021/06/01 06:49:03;;;;;;;4.80;4.40;;;18.30;99.90;;;;;;4977114;28;20443;-62
2021/06/01 06:51:31;;;;;;;5.50;5.03;;;18.60;99.30;;;;;;4976854;28;20474;-62
2021/06/01 06:53:58;;;;;;;5.23;4.70;;;19.10;97.50;;;;;;4976543;28;20462;-62
2021/06/01 06:56:27;;;;;;;4.37;4.00;;;19.80;97.30;;;;;;4977100;28;20459;-62
2021/06/01 06:58:54;;;;;;;5.20;4.70;;;20.60;95.30;;;;;;4976871;28;20455;-62
2021/06/01 07:01:20;;;;;;;4.53;3.93;;;21.30;93.20;;;;;;4976517;28;21036;-63
2021/06/01 07:03:47;;;;;;;5.23;4.83;;;21.80;91.70;;;;;;4976776;28;20461;-62
2021/06/01 07:06:15;;;;;;;8.10;4.17;;;22.50;90.30;;;;;;4977149;28;20870;-63
2021/06/01 07:08:42;;;;;;;4.57;4.27;;;23.30;82.90;;;;;;4976756;28;20977;-63
2021/06/01 07:11:09;;;;;;;4.50;4.20;;;23.80;82.80;;;;;;4977149;28;20474;-63
2021/06/01 07:13:48;;;;;;;3.70;3.40;;;24.20;79.90;;;;;;4976723;28;20481;-63
2021/06/01 07:16:15;;;;;;;3.97;3.60;;;24.30;73.80;;;;;;4977645;28;20443;-63
2021/06/01 07:18:41;;;;;;;4.27;3.97;;;25.00;73.80;;;;;;4977060;28;20457;-63
2021/06/01 07:21:11;;;;;;;4.80;3.70;;;25.30;67.80;;;;;;4976685;28;20497;-63
2021/06/01 07:23:38;;;;;;;4.33;3.93;;;25.40;67.70;;;;;;4977239;28;20497;-62
2021/06/01 07:26:06;;;;;;;3.67;3.43;;;25.70;70.60;;;;;;4976546;28;20482;-63
2021/06/01 07:28:32;;;;;;;3.40;3.20;;;25.70;63.90;;;;;;4976599;28;20455;-63
2021/06/01 07:31:00;;;;;;;8.10;3.20;;;25.90;61.70;;;;;;4977097;28;20981;-63
2021/06/01 07:33:27;;;;;;;3.30;3.00;;;26.00;59.70;;;;;;4978820;28;20455;-63
2021/06/01 07:35:53;;;;;;;2.73;2.60;;;25.80;57.80;;;;;;4979112;28;20461;-63
2021/06/01 07:38:19;;;;;;;3.23;2.93;;;25.90;57.80;;;;;;4976769;28;20910;-63
2021/06/01 07:40:47;;;;;;;2.90;2.70;;;26.10;57.80;;;;;;4976330;28;20481;-61
2021/06/01 07:43:14;;;;;;;3.00;2.80;;;25.90;56.40;;;;;;4976850;28;20485;-61
2021/06/01 07:45:41;;;;;;;3.27;3.03;;;25.90;55.90;;;;;;4976887;28;20443;-62
2021/06/01 07:48:07;;;;;;;2.87;2.53;;;25.80;55.90;;;;;;4977998;28;20458;-62
2021/06/01 07:50:34;;;;;;;3.93;3.63;;;25.50;55.50;;;;;;4977314;28;20482;-62
2021/06/01 07:53:00;;;;;;;3.07;2.90;;;25.50;55.10;;;;;;4977081;28;20458;-63
2021/06/01 07:55:26;;;;;;;3.37;3.07;;;25.50;55.40;;;;;;4977048;28;20856;-63
2021/06/01 07:57:52;;;;;;;2.90;2.80;;;25.50;55.60;;;;;;4977056;28;20439;-63
2021/06/01 08:00:22;;;;;;;3.97;2.43;;;25.60;55.40;;;;;;4976570;28;20521;-63
2021/06/01 08:02:48;;;;;;;2.90;2.70;;;26.00;55.20;;;;;;4990098;28;20462;-63
2021/06/01 08:05:16;;;;;;;2.30;2.20;;;26.20;54.90;;;;;;4981737;28;20459;-63
2021/06/01 08:07:42;;;;;;;2.87;2.77;;;26.50;53.70;;;;;;4976566;28;20520;-63
2021/06/01 08:10:09;;;;;;;3.13;2.83;;;26.90;52.80;;;;;;4977277;28;20455;-62
2021/06/01 08:12:36;;;;;;;3.30;3.10;;;27.20;53.10;;;;;;4976305;28;20527;-63
2021/06/01 08:15:03;;;;;;;3.60;3.30;;;27.20;51.30;;;;;;4976633;28;20466;-63
2021/06/01 08:17:31;;;;;;;3.30;3.00;;;27.10;51.80;;;;;;4976874;28;20977;-63
2021/06/01 08:20:06;;;;;;;5.00;2.90;;;27.20;52.20;;;;;;4977192;28;20458;-63
2021/06/01 08:22:33;;;;;;;3.50;3.00;;;27.10;52.30;;;;;;4977132;28;20478;-63
2021/06/01 08:24:59;;;;;;;4.17;3.30;;;26.90;51.10;;;;;;4977695;28;20454;-63
2021/06/01 08:27:27;;;;;;;2.90;2.80;;;27.10;51.10;;;;;;4976831;28;20462;-63
2021/06/01 08:29:54;;;;;;;2.90;2.70;;;27.60;50.10;;;;;;4978314;28;20461;-62
2021/06/01 08:32:20;;;;;;;3.80;2.80;;;27.40;50.10;;;;;;4977899;28;20482;-62
2021/06/01 08:34:48;;;;;;;3.10;2.73;;;27.30;49.90;;;;;;4977340;28;20825;-62
2021/06/01 08:37:14;;;;;;;2.70;2.60;;;27.60;49.30;;;;;;4977599;28;20454;-63
2021/06/01 08:39:40;;;;;;;2.80;2.60;;;27.50;49.20;;;;;;4994244;28;20439;-62
2021/06/01 08:42:07;;;;;;;3.93;3.00;;;27.60;47.80;;;;;;4991216;28;20486;-62
2021/06/01 08:44:33;;;;;;;2.80;2.70;;;27.50;49.40;;;;;;4993490;28;20476;-62
2021/06/01 08:47:01;;;;;;;5.00;2.50;;;27.90;49.20;;;;;;4991599;28;20988;-62
2021/06/01 08:49:27;;;;;;;2.90;2.70;;;27.80;47.60;;;;;;4985297;28;20458;-64
2021/06/01 08:51:55;;;;;;;2.70;2.50;;;27.70;47.60;;;;;;4985764;28;20490;-62
2021/06/01 08:54:21;;;;;;;4.03;3.07;;;27.50;47.40;;;;;;4978499;28;20485;-62
2021/06/01 08:56:47;;;;;;;3.40;3.00;;;27.50;48.60;;;;;;4974832;28;20948;-62
2021/06/01 08:59:14;;;;;;;2.53;2.27;;;27.70;47.90;;;;;;4975321;28;20602;-62
2021/06/01 09:01:42;;;;;;;2.80;2.70;;;28.30;49.00;;;;;;4974449;28;20482;-63
2021/06/01 09:04:10;;;;;;;2.67;2.50;;;28.10;46.70;;;;;;4975111;28;20819;-64
2021/06/01 09:06:39;;;;;;;3.80;3.60;;;27.80;46.10;;;;;;4974541;28;20569;-63
2021/06/01 09:09:38;;;;;;;2.77;2.67;;;27.50;47.30;;;;;;4982222;28;20490;-63
2021/06/01 09:12:11;;;;;;;3.83;2.90;;;27.50;48.70;;;;;;4979138;28;20478;-63
2021/06/01 09:15:03;;;;;;;4.20;2.57;;;27.80;45.60;;;;;;4979161;28;20450;-63
2021/06/01 09:23:15;;;;;;;2.90;2.70;;;27.10;45.10;;;;;;4978408;28;20493;-62
2021/06/01 09:25:45;;;;;;;4.10;2.53;;;27.70;46.80;;;;;;4978396;28;20508;-62
2021/06/01 09:28:13;;;;;;;4.13;3.73;;;27.80;45.80;;;;;;4978293;28;20454;-62
2021/06/01 09:30:42;;;;;;;2.60;2.40;;;27.80;45.50;;;;;;4978050;28;20475;-62
2021/06/01 09:33:10;;;;;;;4.83;2.50;;;28.00;45.40;;;;;;4977621;28;20478;-62
2021/06/01 09:35:44;;;;;;;2.73;2.63;;;28.70;45.20;;;;;;4977830;28;20500;-62
2021/06/01 09:38:12;;;;;;;3.47;3.27;;;28.80;43.80;;;;;;4977984;28;20458;-62
2021/06/01 09:40:39;;;;;;;2.60;2.50;;;28.80;44.70;;;;;;4977853;28;20470;-62
2021/06/01 09:43:10;;;;;;;2.57;2.47;;;29.10;44.80;;;;;;4977740;28;20478;-62
2021/06/01 09:45:36;;;;;;;4.10;2.60;;;29.30;44.70;;;;;;4977913;28;20439;-62
2021/06/01 09:48:07;;;;;;;2.30;2.20;;;29.60;43.10;;;;;;4977662;28;20462;-62
2021/06/01 09:50:39;;;;;;;2.97;2.77;;;30.10;43.20;;;;;;4977841;28;20479;-63
2021/06/01 09:53:08;;;;;;;3.43;2.40;;;30.60;41.40;;;;;;4977674;28;20439;-63
2021/06/01 09:55:41;;;;;;;2.60;2.50;;;30.50;43.60;;;;;;4977765;28;20786;-63
2021/06/01 09:58:13;;;;;;;2.60;2.40;;;30.60;43.30;;;;;;4977656;28;20443;-62
2021/06/01 10:00:41;;;;;;;2.60;2.40;;;30.70;44.20;;;;;;4982156;28;20602;-63
2021/06/01 10:03:12;;;;;;;2.83;2.63;;;30.30;43.50;;;;;;4977526;28;20581;-63
2021/06/01 10:05:40;;;;;;;2.40;2.30;;;30.30;43.20;;;;;;4977469;28;20458;-63
2021/06/01 10:08:12;;;;;;;2.40;2.27;;;30.60;42.70;;;;;;4977166;28;20474;-63
2021/06/01 10:10:38;;;;;;;2.97;2.67;;;30.70;40.90;;;;;;4977291;28;20475;-62
2021/06/01 10:13:06;;;;;;;2.53;2.37;;;30.20;40.90;;;;;;4977084;28;20458;-63
2021/06/01 10:15:35;;;;;;;4.20;3.17;;;29.90;41.40;;;;;;4977426;28;20447;-63
2021/06/01 10:18:02;;;;;;;2.73;2.60;;;29.60;41.10;;;;;;4977411;28;20458;-62
2021/06/01 10:20:32;;;;;;;3.10;2.43;;;29.40;41.70;;;;;;4977007;28;20458;-63
2021/06/01 10:22:59;;;;;;;2.97;2.87;;;29.30;42.30;;;;;;4976977;28;20811;-63
2021/06/01 10:25:27;;;;;;;3.07;2.80;;;29.40;42.00;;;;;;4976864;28;20454;-63
2021/06/01 10:27:58;;;;;;;3.00;2.77;;;29.70;43.20;;;;;;4976803;28;20494;-63
2021/06/01 10:30:26;;;;;;;2.67;2.47;;;30.10;44.90;;;;;;4976687;28;20443;-63
2021/06/01 10:32:58;;;;;;;3.03;2.40;;;30.40;40.80;;;;;;4976636;28;20455;-62
2021/06/01 10:35:30;;;;;;;2.20;2.10;;;30.70;41.30;;;;;;4976605;28;20450;-62
2021/06/01 10:43:55;;;;;;;4.70;2.43;;;29.80;40.20;;;;;;4981180;28;20454;-62
2021/06/01 10:52:18;;;;;;;3.03;2.83;;;29.90;41.10;;;;;;5092866;27;21042;-62
2021/06/01 10:54:55;;;;;;;3.83;3.00;;;29.50;40.10;;;;;;5093011;28;20429;-62
2021/06/01 10:57:22;;;;;;;2.40;2.30;;;29.20;41.80;;;;;;5092245;28;20429;-62
2021/06/01 11:03:03;;;;;;;2.60;2.40;;;28.70;41.50;;;;;;5094038;28;20456;-62
2021/06/01 11:05:29;;;;;;;2.87;2.67;;;28.80;41.30;;;;;;5092414;28;20445;-61
2021/06/01 11:07:59;;;;;;;2.90;2.13;;;28.70;41.60;;;;;;5092736;28;20460;-61
2021/06/01 11:10:40;;;;;;;2.50;2.40;;;29.40;42.60;;;;;;5091696;28;20473;-62
2021/06/01 11:13:07;;;;;;;2.77;2.50;;;29.90;41.90;;;;;;5097009;28;20464;-63
2021/06/01 11:15:35;;;;;;;3.13;2.60;;;29.80;39.30;;;;;;5095857;28;20468;-63
2021/06/01 11:18:30;;;;;;;2.83;2.50;;;29.70;39.40;;;;;;5095553;28;21066;-62
2021/06/01 11:21:27;;;;;;;2.67;2.47;;;28.60;39.50;;;;;;5096854;28;20472;-63
2021/06/01 11:33:06;;;;;;;3.03;2.93;;;27.30;43.50;;;;;;5098613;28;20923;-62
2021/06/01 11:35:38;;;;;;;3.37;2.43;;;27.00;46.10;;;;;;5091419;28;20461;-62
2021/06/01 11:38:10;;;;;;;5.90;2.87;;;27.00;45.00;;;;;;5092278;28;20437;-62
2021/06/01 11:40:51;;;;;;;3.30;2.47;;;27.10;43.70;;;;;;5091384;28;20465;-62
2021/06/01 11:43:19;;;;;;;2.63;2.53;;;27.30;43.70;;;;;;5091098;28;20910;-62
2021/06/01 11:45:52;;;;;;;3.50;2.80;;;27.20;42.70;;;;;;5091251;28;20475;-62
2021/06/01 11:51:13;;;;;;;2.90;2.80;;;27.00;46.50;;;;;;5090649;28;20472;-62
2021/06/01 11:53:50;;;;;;;3.60;2.90;;;26.90;44.20;;;;;;5091275;28;20437;-63
2021/06/01 11:56:38;;;;;;;3.23;3.00;;;26.50;45.20;;;;;;5091313;28;20434;-65
2021/06/01 12:02:02;;;;;;;4.37;2.80;;;26.80;49.30;;;;;;5088399;28;20485;-66
2021/06/01 12:13:16;;;;;;;2.90;2.80;;;27.20;46.60;;;;;;5078470;28;20445;-62
2021/06/01 12:18:32;;;;;;;3.13;2.70;;;27.10;47.00;;;;;;5080334;28;20456;-61
2021/06/01 12:20:59;;;;;;;4.93;2.80;;;27.10;47.80;;;;;;5077212;28;20468;-63
2021/06/01 12:23:35;;;;;;;2.57;2.47;;;27.00;45.30;;;;;;5077022;28;20461;-63
2021/06/01 12:26:11;;;;;;;2.80;2.70;;;27.10;46.20;;;;;;5076377;28;20772;-63
2021/06/01 12:31:54;;;;;;;2.90;2.70;;;27.20;46.10;;;;;;5076305;28;20527;-66
2021/06/01 12:34:27;;;;;;;3.20;2.77;;;27.40;45.70;;;;;;5076785;28;20461;-66
2021/06/01 12:37:26;;;;;;;3.37;3.07;;;27.40;46.70;;;;;;5076950;28;20478;-66
2021/06/01 12:43:05;;;;;;;3.23;3.00;;;27.50;46.90;;;;;;5076332;28;20955;-66
2021/06/01 12:45:53;;;;;;;2.47;2.37;;;27.60;46.50;;;;;;5076346;28;20471;-66
2021/06/01 13:06:36;;;;;;;3.13;2.90;;;27.70;45.10;;;;;;5077363;28;20421;-66
2021/06/01 13:09:39;;;;;;;2.67;2.30;;;27.70;45.00;;;;;;5075107;28;20442;-66
2021/06/01 13:12:16;;;;;;;4.83;2.73;;;27.80;44.40;;;;;;5075712;28;20587;-66
2021/06/01 13:14:51;;;;;;;3.03;2.37;;;27.60;44.90;;;;;;5074881;28;20897;-67
2021/06/01 13:20:20;;;;;;;3.00;2.80;;;27.70;46.00;;;;;;5075343;28;20426;-67
2021/06/01 13:22:56;;;;;;;2.80;2.70;;;27.50;44.30;;;;;;5075432;28;20434;-66
2021/06/01 13:37:04;;;;;;;4.33;2.57;;;26.50;46.80;;;;;;5075164;28;20480;-66
2021/06/01 13:39:37;;;;;;;5.27;2.90;;;26.20;46.70;;;;;;5075144;28;20504;-66
2021/06/01 13:47:54;;;;;;;4.10;2.33;;;26.90;45.50;;;;;;5081692;28;20836;-66
2021/06/01 13:50:29;;;;;;;2.60;2.40;;;27.20;45.60;;;;;;5076184;28;20457;-66
2021/06/01 13:53:09;;;;;;;2.60;2.40;;;27.00;45.20;;;;;;5074682;28;20449;-67
2021/06/01 13:55:39;;;;;;;2.77;2.53;;;26.80;46.60;;;;;;5074812;28;20439;-66
2021/06/01 14:00:55;;;;;;;2.97;2.87;;;26.70;44.20;;;;;;5074154;28;20450;-66
2021/06/01 14:36:52;;;;;;;2.53;2.33;;;27.50;44.70;;;;;;5074530;28;20896;-66
2021/06/01 14:39:39;;;;;;;2.40;2.30;;;27.50;46.90;;;;;;5074422;28;20430;-67
2021/06/01 15:10:11;;;;;;;2.93;2.73;;;26.70;45.50;;;;;;5073836;28;20950;-66
2021/06/01 15:29:40;;;;;;;2.90;2.70;;;26.60;47.30;;;;;;5074715;28;20949;-64
2021/06/01 15:32:14;;;;;;;3.00;2.80;;;26.40;45.80;;;;;;5074671;28;20573;-65
2021/06/01 15:51:41;;;;;;;3.03;2.73;;;26.20;46.30;;;;;;5078097;28;20485;-66
2021/06/01 15:54:11;;;;;;;3.40;3.10;;;26.10;47.70;;;;;;5076996;28;20491;-65
2021/06/01 16:13:33;;;;;;;2.83;2.73;;;26.30;46.90;;;;;;5077316;28;20414;-65
2021/06/01 16:21:43;;;;;;;2.70;2.60;;;26.20;46.80;;;;;;5077743;28;20546;-66
2021/06/01 16:30:01;;;;;;;7.13;2.50;;;26.00;46.70;;;;;;5082517;28;20417;-67
2021/06/01 16:43:43;;;;;;;2.87;2.77;;;25.70;47.30;;;;;;5086158;28;20904;-67
2021/06/01 17:05:32;;;;;;;3.17;2.87;;;25.10;47.20;;;;;;5075915;28;20427;-66
2021/06/01 17:08:31;;;;;;;2.90;2.70;;;25.00;48.50;;;;;;5075914;28;20527;-66
2021/06/01 17:11:06;;;;;;;3.10;2.93;;;24.90;48.60;;;;;;5075769;28;20477;-66
2021/06/01 17:13:36;;;;;;;3.53;2.73;;;24.60;48.70;;;;;;5075356;28;20496;-66
2021/06/01 17:16:04;;;;;;;3.30;3.00;;;24.60;49.20;;;;;;5075784;28;20488;-66
2021/06/01 17:18:51;;;;;;;2.83;2.63;;;24.60;49.60;;;;;;5075319;28;20450;-66
2021/06/01 17:21:51;;;;;;;2.83;2.63;;;24.60;49.40;;;;;;5075817;28;20469;-62
2021/06/01 17:24:28;;;;;;;2.93;2.73;;;24.50;48.20;;;;;;5075652;28;20518;-63
2021/06/01 17:35:20;;;;;;;3.40;3.10;;;24.40;48.40;;;;;;5084155;28;20545;-64
2021/06/01 17:37:47;;;;;;;5.43;3.00;;;24.40;48.50;;;;;;5075824;28;20493;-64
2021/06/01 17:40:15;;;;;;;3.13;2.80;;;24.30;48.10;;;;;;5075846;28;20454;-62
2021/06/01 17:42:49;;;;;;;2.77;2.57;;;24.20;48.40;;;;;;5075249;28;20465;-63
2021/06/01 17:45:18;;;;;;;2.93;2.33;;;24.20;48.10;;;;;;5075103;28;20491;-63
2021/06/01 17:47:49;;;;;;;3.00;2.70;;;24.00;47.90;;;;;;5074745;28;20955;-63
2021/06/01 17:50:16;;;;;;;5.60;2.60;;;23.90;47.50;;;;;;5075533;28;20583;-62
2021/06/01 17:52:44;;;;;;;5.73;2.60;;;23.90;47.90;;;;;;5074634;28;20905;-63
2021/06/01 17:55:15;;;;;;;2.70;2.60;;;23.90;48.20;;;;;;5074664;28;20450;-63
2021/06/01 17:57:45;;;;;;;2.60;2.43;;;23.90;48.10;;;;;;5074524;28;20434;-62
2021/06/01 18:00:13;;;;;;;7.30;2.83;;;23.80;48.90;;;;;;5073911;28;20569;-63
2021/06/01 18:02:40;;;;;;;2.83;2.47;;;23.80;48.90;;;;;;5074658;28;20473;-62
2021/06/01 18:05:08;;;;;;;2.83;2.63;;;23.80;50.10;;;;;;5074505;28;20927;-62
2021/06/01 18:07:39;;;;;;;2.47;2.37;;;23.80;50.80;;;;;;5073141;28;20453;-62
2021/06/01 18:41:43;;;;;;;2.83;2.63;;;23.10;51.40;;;;;;5091135;28;20454;-63
2021/06/01 19:26:42;;;;;;;4.60;4.00;;;21.80;54.30;;;;;;5077963;28;20422;-63
2021/06/01 19:51:31;;;;;;;2.90;2.80;;;21.00;54.60;;;;;;5078137;28;20476;-62
2021/06/01 19:53:58;;;;;;;3.30;2.87;;;21.00;54.90;;;;;;5079320;28;20450;-62
2021/06/01 19:56:25;;;;;;;3.63;3.17;;;20.90;55.20;;;;;;5080875;28;20787;-63
2021/06/01 19:58:53;;;;;;;5.83;3.07;;;20.90;55.10;;;;;;5078791;28;20438;-63
2021/06/01 20:01:19;;;;;;;4.00;3.00;;;20.90;55.10;;;;;;5077607;28;20466;-62
2021/06/01 20:03:46;;;;;;;7.60;3.40;;;20.80;55.10;;;;;;5077584;28;20513;-63
2021/06/01 20:06:13;;;;;;;3.50;3.20;;;20.80;55.00;;;;;;5078206;28;20452;-63
2021/06/01 20:08:41;;;;;;;3.40;3.10;;;20.70;55.10;;;;;;5077795;28;20434;-63
2021/06/01 20:11:09;;;;;;;3.37;2.73;;;20.60;55.40;;;;;;5077350;28;20481;-63
2021/06/01 20:13:36;;;;;;;3.30;3.10;;;20.60;55.40;;;;;;5077627;28;20545;-63
2021/06/01 20:16:03;;;;;;;3.67;3.37;;;20.60;55.30;;;;;;5077855;28;20584;-62
2021/06/01 20:18:32;;;;;;;3.67;3.40;;;20.50;55.50;;;;;;5077921;28;20458;-63
2021/06/01 20:20:59;;;;;;;5.70;2.90;;;20.50;55.50;;;;;;5077227;28;20474;-63
2021/06/01 20:23:26;;;;;;;3.87;3.57;;;20.50;55.50;;;;;;5077086;28;20957;-63
2021/06/01 20:25:54;;;;;;;3.50;3.30;;;20.40;55.50;;;;;;5077231;28;20503;-62
2021/06/01 20:28:32;;;;;;;2.70;2.50;;;20.40;55.80;;;;;;5076935;28;20454;-62
2021/06/01 20:31:05;;;;;;;3.77;3.40;;;20.30;55.60;;;;;;5076672;28;20474;-62
2021/06/01 20:33:33;;;;;;;3.20;3.00;;;20.30;55.90;;;;;;5077122;28;20442;-62
2021/06/01 20:36:00;;;;;;;3.43;2.93;;;20.30;56.00;;;;;;5079664;28;20457;-63
2021/06/01 20:38:27;;;;;;;2.90;2.70;;;20.20;56.20;;;;;;5077652;28;20446;-62
2021/06/01 20:40:54;;;;;;;3.00;2.80;;;20.20;56.30;;;;;;5077600;28;20834;-61
2021/06/01 20:43:21;;;;;;;3.50;3.30;;;20.20;56.70;;;;;;5077659;28;20454;-63
2021/06/01 20:45:49;;;;;;;3.40;3.10;;;20.10;56.70;;;;;;5077809;28;20535;-62
2021/06/01 20:48:17;;;;;;;3.43;3.23;;;20.10;57.30;;;;;;5077217;28;20454;-63
2021/06/01 20:50:45;;;;;;;4.20;3.33;;;20.00;57.20;;;;;;5076895;28;20556;-62
2021/06/01 20:53:12;;;;;;;3.30;3.10;;;20.00;57.30;;;;;;5077436;28;20493;-62
2021/06/01 20:55:40;;;;;;;3.27;3.07;;;19.90;57.60;;;;;;5077777;28;20450;-63
2021/06/01 20:58:08;;;;;;;3.23;3.03;;;19.90;58.60;;;;;;5076962;28;20446;-62
2021/06/01 21:00:36;;;;;;;3.70;3.37;;;19.80;58.10;;;;;;5077044;28;21007;-62
2021/06/01 21:03:06;;;;;;;3.57;3.27;;;19.70;58.80;;;;;;5077445;28;20944;-62
2021/06/01 21:05:32;;;;;;;3.87;3.63;;;19.70;58.70;;;;;;5077322;28;20450;-62
2021/06/01 21:08:00;;;;;;;5.07;4.67;;;19.60;58.90;;;;;;5078214;28;20446;-62
2021/06/01 21:10:27;;;;;;;4.20;3.90;;;19.50;59.30;;;;;;5094773;28;20450;-63
2021/06/01 21:12:54;;;;;;;4.40;4.10;;;19.40;59.60;;;;;;5078232;28;20815;-63
2021/06/01 21:15:21;;;;;;;6.13;3.20;;;19.40;59.80;;;;;;5077811;28;20549;-62
2021/06/01 21:17:47;;;;;;;3.43;3.13;;;19.30;59.90;;;;;;5077857;28;20457;-63
2021/06/01 21:20:17;;;;;;;3.73;3.53;;;19.20;60.10;;;;;;5077087;28;20491;-63
2021/06/01 21:22:44;;;;;;;3.80;3.50;;;19.20;60.50;;;;;;5077417;28;20469;-63
2021/06/01 21:25:14;;;;;;;4.20;3.80;;;19.10;60.60;;;;;;5077104;28;20450;-63
2021/06/01 21:27:41;;;;;;;3.27;3.07;;;19.10;60.80;;;;;;5075651;28;20454;-62
2021/06/01 21:30:09;;;;;;;4.13;3.50;;;19.10;60.80;;;;;;5076161;28;20458;-63
2021/06/01 21:32:37;;;;;;;3.37;3.07;;;19.10;61.00;;;;;;5075457;28;20481;-64
2021/06/01 21:35:06;;;;;;;3.70;3.40;;;19.10;62.10;;;;;;5074610;28;20450;-63
2021/06/01 21:37:39;;;;;;;4.20;3.90;;;19.10;61.50;;;;;;5075736;28;20463;-63
2021/06/01 21:40:06;;;;;;;4.50;4.10;;;19.00;62.00;;;;;;5075669;28;20804;-63
2021/06/01 21:42:36;;;;;;;3.80;3.60;;;19.00;62.30;;;;;;5075511;28;20485;-63
2021/06/01 21:45:05;;;;;;;3.80;3.50;;;18.90;62.70;;;;;;5075702;28;21009;-62
2021/06/01 21:47:35;;;;;;;3.33;3.13;;;18.90;61.30;;;;;;5075605;28;20455;-63
2021/06/01 21:50:03;;;;;;;3.47;3.27;;;18.90;62.00;;;;;;5075455;28;20439;-64
2021/06/01 21:52:30;;;;;;;4.00;3.70;;;18.80;62.60;;;;;;5075204;28;20921;-64
2021/06/01 21:54:59;;;;;;;3.37;3.20;;;18.90;62.50;;;;;;5075882;28;20454;-63
2021/06/01 21:57:25;;;;;;;3.60;3.37;;;18.80;64.00;;;;;;5075920;28;20458;-63
2021/06/01 21:59:54;;;;;;;3.37;3.07;;;18.80;63.50;;;;;;5076439;28;20964;-63
